Tromso, Norway

7:41 AM CEST on August 28, 2016 (GMT +0200)
Holtvegen | | Change Station

Elev -10000 ft 69.65 °N, 18.93 °E | Updated 53 seconds ago

Light Rain
Light Rain
46.4 °F
Feels Like 41 °F
N
12.4
Wind Variable Wind from WNW
Gusts 23.0 mph

Today
High -- | Low -- °F
--% Chance of Precip.
Yesterday
High -- | Low -- °F
Precip. -- in
Pressure 29.92 in
Visibility 6.2 miles
Clouds Few 1900 ft
Mostly Cloudy 3100 ft
Windchill 41 °F
Dew Point 41 °F
Humidity 82%
Rainfall Not available.
Snow Depth Not available.
4:46 AM 8:41 PM
Waning Crescent, 18% visible
METAR ENTC 280520Z 28014KT 9999 -RA FEW019 BKN031 07/04 Q1013 RMK WIND 2600FT 30015KT
Pressure 29.92 in
Visibility 6.2 miles
Clouds Few 1900 ft
Mostly Cloudy 3100 ft
Windchill 41 °F
Dew Point 41 °F
Humidity 82%
Rainfall Not available.
Snow Depth Not available.
4:46 AM 8:41 PM
Waning Crescent, 18% visible
METAR ENTC 280520Z 28014KT 9999 -RA FEW019 BKN031 07/04 Q1013 RMK WIND 2600FT 30015KT

10-Day Weather Forecast

×

Almanac

Astronomy

Aug. 28, 2016 Rise Set
Actual Time
Civil Twilight
Nautical Twilight
Astronomical Twilight
Moon
Length of Visible Light
Length of Day
Tomorrow will be .
, % of the Moon is Illuminated

Today's Extremes

Country Highs Country Lows

Community

WunderPhotos

Upload Photos

1,935,533 photos uploaded!

WunderBlog® & News

Nearby

Air Quality

  Air Quality AQ Index Pollutant
Not available.

Snow Depth

Station Depth Elevation

Earthquake Activity

City Distance Mag. Time & Date
Minimum magnitude displayed is 2.5.

Coastal Water Temperatures

Place Temperature

Stations

Nearby Weather Stations

Station Location Temp. Windchill Dew Point Humidity Wind Precip. Elev Updated Type